sensor_id;sensor_type;location;lat;lon;timestamp;P1;durP1;ratioP1;P2;durP2;ratioP2
77581;SDS011;66726;52.388;9.986;2023-10-31T00:01:28;8.60;;;6.30;;
77581;SDS011;66726;52.388;9.986;2023-10-31T00:03:57;9.07;;;6.40;;
77581;SDS011;66726;52.388;9.986;2023-10-31T00:06:27;7.20;;;5.77;;
77581;SDS011;66726;52.388;9.986;2023-10-31T00:08:55;10.33;;;7.03;;
77581;SDS011;66726;52.388;9.986;2023-10-31T00:11:23;8.57;;;6.63;;
77581;SDS011;66726;52.388;9.986;2023-10-31T00:13:51;8.03;;;6.47;;
77581;SDS011;66726;52.388;9.986;2023-10-31T00:16:19;9.10;;;6.30;;
77581;SDS011;66726;52.388;9.986;2023-10-31T00:18:48;9.43;;;6.30;;
77581;SDS011;66726;52.388;9.986;2023-10-31T00:21:16;10.47;;;6.73;;
77581;SDS011;66726;52.388;9.986;2023-10-31T00:23:47;7.47;;;6.30;;
77581;SDS011;66726;52.388;9.986;2023-10-31T00:26:16;8.83;;;5.90;;
77581;SDS011;66726;52.388;9.986;2023-10-31T00:28:44;9.67;;;6.20;;
77581;SDS011;66726;52.388;9.986;2023-10-31T00:31:12;8.17;;;5.40;;
77581;SDS011;66726;52.388;9.986;2023-10-31T00:33:40;9.73;;;5.97;;
77581;SDS011;66726;52.388;9.986;2023-10-31T00:36:09;10.23;;;5.90;;
77581;SDS011;66726;52.388;9.986;2023-10-31T00:38:37;7.40;;;6.20;;
77581;SDS011;66726;52.388;9.986;2023-10-31T00:41:06;7.07;;;5.47;;
77581;SDS011;66726;52.388;9.986;2023-10-31T00:43:35;6.93;;;5.50;;
77581;SDS011;66726;52.388;9.986;2023-10-31T00:46:03;5.87;;;5.07;;
77581;SDS011;66726;52.388;9.986;2023-10-31T00:48:32;6.97;;;5.20;;
77581;SDS011;66726;52.388;9.986;2023-10-31T00:51:02;6.77;;;5.40;;
77581;SDS011;66726;52.388;9.986;2023-10-31T00:53:31;6.43;;;4.53;;
77581;SDS011;66726;52.388;9.986;2023-10-31T00:55:59;6.27;;;4.87;;
77581;SDS011;66726;52.388;9.986;2023-10-31T00:58:30;9.13;;;4.70;;
77581;SDS011;66726;52.388;9.986;2023-10-31T01:00:58;6.00;;;4.37;;
77581;SDS011;66726;52.388;9.986;2023-10-31T01:03:26;7.30;;;4.77;;
77581;SDS011;66726;52.388;9.986;2023-10-31T01:05:55;6.23;;;4.73;;
77581;SDS011;66726;52.388;9.986;2023-10-31T01:08:23;4.53;;;4.13;;
77581;SDS011;66726;52.388;9.986;2023-10-31T01:10:51;8.90;;;4.27;;
77581;SDS011;66726;52.388;9.986;2023-10-31T01:13:19;4.63;;;3.87;;
77581;SDS011;66726;52.388;9.986;2023-10-31T01:15:49;4.03;;;3.53;;
77581;SDS011;66726;52.388;9.986;2023-10-31T01:18:17;3.83;;;3.47;;
77581;SDS011;66726;52.388;9.986;2023-10-31T01:20:45;4.43;;;3.90;;
77581;SDS011;66726;52.388;9.986;2023-10-31T01:23:14;4.73;;;3.50;;
77581;SDS011;66726;52.388;9.986;2023-10-31T01:25:42;4.90;;;3.63;;
77581;SDS011;66726;52.388;9.986;2023-10-31T01:28:10;5.70;;;3.47;;
77581;SDS011;66726;52.388;9.986;2023-10-31T01:30:38;6.87;;;3.77;;
77581;SDS011;66726;52.388;9.986;2023-10-31T01:33:07;4.73;;;3.80;;
77581;SDS011;66726;52.388;9.986;2023-10-31T01:35:36;6.23;;;3.80;;
77581;SDS011;66726;52.388;9.986;2023-10-31T01:38:04;6.90;;;3.97;;
77581;SDS011;66726;52.388;9.986;2023-10-31T01:40:32;6.37;;;4.20;;
77581;SDS011;66726;52.388;9.986;2023-10-31T01:43:00;4.60;;;3.50;;
77581;SDS011;66726;52.388;9.986;2023-10-31T01:45:28;4.23;;;3.53;;
77581;SDS011;66726;52.388;9.986;2023-10-31T01:47:56;4.27;;;3.57;;
77581;SDS011;66726;52.388;9.986;2023-10-31T01:50:27;5.27;;;3.90;;
77581;SDS011;66726;52.388;9.986;2023-10-31T01:52:56;4.83;;;3.67;;
77581;SDS011;66726;52.388;9.986;2023-10-31T01:55:24;7.63;;;4.07;;
77581;SDS011;66726;52.388;9.986;2023-10-31T01:57:53;6.73;;;3.97;;
77581;SDS011;66726;52.388;9.986;2023-10-31T02:00:22;4.00;;;3.70;;
77581;SDS011;66726;52.388;9.986;2023-10-31T02:02:51;5.07;;;4.00;;
77581;SDS011;66726;52.388;9.986;2023-10-31T02:05:21;4.47;;;3.40;;
77581;SDS011;66726;52.388;9.986;2023-10-31T02:07:51;5.40;;;3.73;;
77581;SDS011;66726;52.388;9.986;2023-10-31T02:10:19;4.37;;;3.97;;
77581;SDS011;66726;52.388;9.986;2023-10-31T02:12:47;4.50;;;3.70;;
77581;SDS011;66726;52.388;9.986;2023-10-31T02:15:15;7.00;;;3.87;;
77581;SDS011;66726;52.388;9.986;2023-10-31T02:17:43;7.17;;;4.10;;
77581;SDS011;66726;52.388;9.986;2023-10-31T02:20:12;4.60;;;4.03;;
77581;SDS011;66726;52.388;9.986;2023-10-31T02:22:41;5.40;;;4.27;;
77581;SDS011;66726;52.388;9.986;2023-10-31T02:25:16;4.67;;;3.90;;
77581;SDS011;66726;52.388;9.986;2023-10-31T02:27:45;4.63;;;4.00;;
77581;SDS011;66726;52.388;9.986;2023-10-31T02:30:13;6.50;;;4.33;;
77581;SDS011;66726;52.388;9.986;2023-10-31T02:32:42;5.43;;;4.40;;
77581;SDS011;66726;52.388;9.986;2023-10-31T02:35:10;4.77;;;4.20;;
77581;SDS011;66726;52.388;9.986;2023-10-31T02:37:41;5.40;;;3.77;;
77581;SDS011;66726;52.388;9.986;2023-10-31T02:40:10;5.37;;;4.40;;
77581;SDS011;66726;52.388;9.986;2023-10-31T02:42:39;5.17;;;4.63;;
77581;SDS011;66726;52.388;9.986;2023-10-31T02:45:07;5.30;;;4.53;;
77581;SDS011;66726;52.388;9.986;2023-10-31T02:47:36;5.97;;;5.00;;
77581;SDS011;66726;52.388;9.986;2023-10-31T02:50:04;9.30;;;4.90;;
77581;SDS011;66726;52.388;9.986;2023-10-31T02:52:34;7.20;;;5.43;;
77581;SDS011;66726;52.388;9.986;2023-10-31T02:55:04;5.03;;;4.53;;
77581;SDS011;66726;52.388;9.986;2023-10-31T02:57:32;5.83;;;5.20;;
77581;SDS011;66726;52.388;9.986;2023-10-31T03:00:00;8.97;;;5.20;;
77581;SDS011;66726;52.388;9.986;2023-10-31T03:02:29;5.63;;;5.10;;
77581;SDS011;66726;52.388;9.986;2023-10-31T03:04:57;6.50;;;5.23;;
77581;SDS011;66726;52.388;9.986;2023-10-31T03:07:25;6.77;;;5.30;;
77581;SDS011;66726;52.388;9.986;2023-10-31T03:09:53;7.00;;;5.53;;
77581;SDS011;66726;52.388;9.986;2023-10-31T03:12:23;8.87;;;5.27;;
77581;SDS011;66726;52.388;9.986;2023-10-31T03:14:51;6.37;;;5.70;;
77581;SDS011;66726;52.388;9.986;2023-10-31T03:17:19;6.03;;;5.37;;
77581;SDS011;66726;52.388;9.986;2023-10-31T03:19:48;6.33;;;5.17;;
77581;SDS011;66726;52.388;9.986;2023-10-31T03:22:16;6.00;;;5.30;;
77581;SDS011;66726;52.388;9.986;2023-10-31T03:24:44;7.43;;;5.20;;
77581;SDS011;66726;52.388;9.986;2023-10-31T03:27:13;4.90;;;4.40;;
77581;SDS011;66726;52.388;9.986;2023-10-31T03:29:42;5.73;;;4.87;;
77581;SDS011;66726;52.388;9.986;2023-10-31T03:32:11;8.07;;;4.63;;
77581;SDS011;66726;52.388;9.986;2023-10-31T03:34:39;6.30;;;5.20;;
77581;SDS011;66726;52.388;9.986;2023-10-31T03:37:08;5.60;;;4.90;;
77581;SDS011;66726;52.388;9.986;2023-10-31T03:39:36;6.17;;;5.50;;
77581;SDS011;66726;52.388;9.986;2023-10-31T03:42:04;6.93;;;5.63;;
77581;SDS011;66726;52.388;9.986;2023-10-31T03:44:32;6.33;;;5.67;;
77581;SDS011;66726;52.388;9.986;2023-10-31T03:47:02;6.43;;;5.83;;
77581;SDS011;66726;52.388;9.986;2023-10-31T03:49:30;6.63;;;5.90;;
77581;SDS011;66726;52.388;9.986;2023-10-31T03:51:58;7.27;;;6.00;;
77581;SDS011;66726;52.388;9.986;2023-10-31T03:54:27;4.80;;;4.30;;
77581;SDS011;66726;52.388;9.986;2023-10-31T03:56:55;3.93;;;3.53;;
77581;SDS011;66726;52.388;9.986;2023-10-31T03:59:23;3.77;;;3.47;;
77581;SDS011;66726;52.388;9.986;2023-10-31T04:01:51;4.00;;;3.70;;
77581;SDS011;66726;52.388;9.986;2023-10-31T04:04:20;3.97;;;3.67;;
77581;SDS011;66726;52.388;9.986;2023-10-31T04:06:48;4.70;;;3.70;;
77581;SDS011;66726;52.388;9.986;2023-10-31T04:09:17;4.50;;;4.10;;
77581;SDS011;66726;52.388;9.986;2023-10-31T04:11:45;4.13;;;3.83;;
77581;SDS011;66726;52.388;9.986;2023-10-31T04:14:13;4.40;;;4.00;;
77581;SDS011;66726;52.388;9.986;2023-10-31T04:16:41;5.27;;;4.13;;
77581;SDS011;66726;52.388;9.986;2023-10-31T04:19:12;5.97;;;3.90;;
77581;SDS011;66726;52.388;9.986;2023-10-31T04:21:41;4.17;;;3.70;;
77581;SDS011;66726;52.388;9.986;2023-10-31T04:24:10;3.90;;;3.60;;
77581;SDS011;66726;52.388;9.986;2023-10-31T04:26:37;3.97;;;3.57;;
77581;SDS011;66726;52.388;9.986;2023-10-31T04:29:07;4.40;;;4.07;;
77581;SDS011;66726;52.388;9.986;2023-10-31T04:31:35;3.50;;;3.20;;
77581;SDS011;66726;52.388;9.986;2023-10-31T04:34:09;3.73;;;3.33;;
77581;SDS011;66726;52.388;9.986;2023-10-31T04:36:39;2.87;;;2.67;;
77581;SDS011;66726;52.388;9.986;2023-10-31T04:39:09;3.03;;;2.80;;
77581;SDS011;66726;52.388;9.986;2023-10-31T04:41:37;2.47;;;2.30;;
77581;SDS011;66726;52.388;9.986;2023-10-31T04:44:05;2.43;;;2.23;;
77581;SDS011;66726;52.388;9.986;2023-10-31T04:46:34;3.43;;;2.23;;
77581;SDS011;66726;52.388;9.986;2023-10-31T04:49:02;3.13;;;2.00;;
77581;SDS011;66726;52.388;9.986;2023-10-31T04:51:32;1.83;;;1.73;;
77581;SDS011;66726;52.388;9.986;2023-10-31T04:54:03;2.20;;;2.00;;
77581;SDS011;66726;52.388;9.986;2023-10-31T04:56:31;2.47;;;1.90;;
77581;SDS011;66726;52.388;9.986;2023-10-31T04:59:00;1.77;;;1.50;;
77581;SDS011;66726;52.388;9.986;2023-10-31T05:01:28;1.40;;;1.30;;
77581;SDS011;66726;52.388;9.986;2023-10-31T05:03:57;1.53;;;1.43;;
77581;SDS011;66726;52.388;9.986;2023-10-31T05:06:38;0.80;;;0.80;;
77581;SDS011;66726;52.388;9.986;2023-10-31T05:09:08;0.87;;;0.80;;
77581;SDS011;66726;52.388;9.986;2023-10-31T05:11:37;3.40;;;0.70;;
77581;SDS011;66726;52.388;9.986;2023-10-31T05:14:07;0.77;;;0.77;;
77581;SDS011;66726;52.388;9.986;2023-10-31T05:16:40;0.70;;;0.70;;
77581;SDS011;66726;52.388;9.986;2023-10-31T05:19:09;1.23;;;0.50;;
77581;SDS011;66726;52.388;9.986;2023-10-31T05:21:38;1.63;;;0.60;;
77581;SDS011;66726;52.388;9.986;2023-10-31T05:24:08;0.60;;;0.40;;
77581;SDS011;66726;52.388;9.986;2023-10-31T05:26:36;0.67;;;0.40;;
77581;SDS011;66726;52.388;9.986;2023-10-31T05:29:06;0.70;;;0.70;;
77581;SDS011;66726;52.388;9.986;2023-10-31T05:31:35;0.50;;;0.50;;
77581;SDS011;66726;52.388;9.986;2023-10-31T05:34:03;0.43;;;0.40;;
77581;SDS011;66726;52.388;9.986;2023-10-31T05:36:31;1.33;;;0.50;;
77581;SDS011;66726;52.388;9.986;2023-10-31T05:39:00;0.50;;;0.50;;
77581;SDS011;66726;52.388;9.986;2023-10-31T05:41:30;0.40;;;0.40;;
77581;SDS011;66726;52.388;9.986;2023-10-31T05:44:00;1.50;;;0.70;;
77581;SDS011;66726;52.388;9.986;2023-10-31T05:46:28;0.93;;;0.60;;
77581;SDS011;66726;52.388;9.986;2023-10-31T05:48:56;1.13;;;0.50;;
77581;SDS011;66726;52.388;9.986;2023-10-31T05:51:25;1.40;;;0.60;;
77581;SDS011;66726;52.388;9.986;2023-10-31T05:53:53;1.00;;;0.53;;
77581;SDS011;66726;52.388;9.986;2023-10-31T05:56:21;2.50;;;0.80;;
77581;SDS011;66726;52.388;9.986;2023-10-31T05:58:50;1.07;;;0.70;;
77581;SDS011;66726;52.388;9.986;2023-10-31T06:01:19;1.20;;;0.70;;
77581;SDS011;66726;52.388;9.986;2023-10-31T06:03:47;0.60;;;0.57;;
77581;SDS011;66726;52.388;9.986;2023-10-31T06:06:15;0.57;;;0.50;;
77581;SDS011;66726;52.388;9.986;2023-10-31T06:08:43;1.27;;;0.90;;
77581;SDS011;66726;52.388;9.986;2023-10-31T06:11:11;0.60;;;0.60;;
77581;SDS011;66726;52.388;9.986;2023-10-31T06:13:40;1.33;;;0.70;;
77581;SDS011;66726;52.388;9.986;2023-10-31T06:16:09;1.10;;;0.63;;
77581;SDS011;66726;52.388;9.986;2023-10-31T06:18:38;1.77;;;0.80;;
77581;SDS011;66726;52.388;9.986;2023-10-31T06:21:07;0.90;;;0.80;;
77581;SDS011;66726;52.388;9.986;2023-10-31T06:23:36;2.43;;;1.00;;
77581;SDS011;66726;52.388;9.986;2023-10-31T06:26:05;2.23;;;0.90;;
77581;SDS011;66726;52.388;9.986;2023-10-31T06:28:33;1.00;;;0.90;;
77581;SDS011;66726;52.388;9.986;2023-10-31T06:31:11;1.97;;;0.97;;
77581;SDS011;66726;52.388;9.986;2023-10-31T06:33:40;1.00;;;0.90;;
77581;SDS011;66726;52.388;9.986;2023-10-31T06:36:08;1.93;;;1.10;;
77581;SDS011;66726;52.388;9.986;2023-10-31T06:38:36;1.47;;;1.10;;
77581;SDS011;66726;52.388;9.986;2023-10-31T06:41:05;3.23;;;1.10;;
77581;SDS011;66726;52.388;9.986;2023-10-31T06:43:33;1.93;;;1.40;;
77581;SDS011;66726;52.388;9.986;2023-10-31T06:46:02;2.47;;;1.43;;
77581;SDS011;66726;52.388;9.986;2023-10-31T06:48:32;3.60;;;1.50;;
77581;SDS011;66726;52.388;9.986;2023-10-31T06:51:01;2.47;;;1.50;;
77581;SDS011;66726;52.388;9.986;2023-10-31T06:53:29;2.00;;;1.60;;
77581;SDS011;66726;52.388;9.986;2023-10-31T06:55:57;2.37;;;1.80;;
77581;SDS011;66726;52.388;9.986;2023-10-31T06:58:25;2.47;;;1.93;;
77581;SDS011;66726;52.388;9.986;2023-10-31T07:00:54;4.30;;;1.93;;
77581;SDS011;66726;52.388;9.986;2023-10-31T07:03:26;2.83;;;1.70;;
77581;SDS011;66726;52.388;9.986;2023-10-31T07:05:55;3.50;;;1.90;;
77581;SDS011;66726;52.388;9.986;2023-10-31T07:08:25;3.50;;;1.80;;
77581;SDS011;66726;52.388;9.986;2023-10-31T07:10:53;3.80;;;1.90;;
77581;SDS011;66726;52.388;9.986;2023-10-31T07:13:23;2.40;;;1.80;;
77581;SDS011;66726;52.388;9.986;2023-10-31T07:15:51;2.67;;;2.20;;
77581;SDS011;66726;52.388;9.986;2023-10-31T07:18:21;2.37;;;1.90;;
77581;SDS011;66726;52.388;9.986;2023-10-31T07:20:49;4.20;;;1.90;;
77581;SDS011;66726;52.388;9.986;2023-10-31T07:23:19;2.47;;;1.83;;
77581;SDS011;66726;52.388;9.986;2023-10-31T07:25:47;2.17;;;1.63;;
77581;SDS011;66726;52.388;9.986;2023-10-31T07:28:16;2.57;;;1.60;;
77581;SDS011;66726;52.388;9.986;2023-10-31T07:30:45;1.90;;;1.70;;
77581;SDS011;66726;52.388;9.986;2023-10-31T07:33:13;2.87;;;1.53;;
77581;SDS011;66726;52.388;9.986;2023-10-31T07:35:41;2.80;;;1.60;;
77581;SDS011;66726;52.388;9.986;2023-10-31T07:38:09;3.40;;;1.57;;
77581;SDS011;66726;52.388;9.986;2023-10-31T07:40:39;3.53;;;1.50;;
77581;SDS011;66726;52.388;9.986;2023-10-31T07:43:07;2.43;;;1.57;;
77581;SDS011;66726;52.388;9.986;2023-10-31T07:45:35;2.87;;;1.60;;
77581;SDS011;66726;52.388;9.986;2023-10-31T07:48:03;2.80;;;1.70;;
77581;SDS011;66726;52.388;9.986;2023-10-31T07:50:32;3.53;;;2.00;;
77581;SDS011;66726;52.388;9.986;2023-10-31T07:53:00;3.43;;;1.80;;
77581;SDS011;66726;52.388;9.986;2023-10-31T07:55:29;3.40;;;1.60;;
77581;SDS011;66726;52.388;9.986;2023-10-31T07:57:58;2.17;;;1.70;;
77581;SDS011;66726;52.388;9.986;2023-10-31T08:00:26;3.10;;;1.70;;
77581;SDS011;66726;52.388;9.986;2023-10-31T08:02:55;2.63;;;1.70;;
77581;SDS011;66726;52.388;9.986;2023-10-31T08:05:23;2.90;;;1.73;;
77581;SDS011;66726;52.388;9.986;2023-10-31T08:07:54;2.60;;;1.50;;
77581;SDS011;66726;52.388;9.986;2023-10-31T08:10:22;2.30;;;1.40;;
77581;SDS011;66726;52.388;9.986;2023-10-31T08:12:50;5.50;;;1.80;;
77581;SDS011;66726;52.388;9.986;2023-10-31T08:15:19;5.30;;;1.87;;
77581;SDS011;66726;52.388;9.986;2023-10-31T08:17:47;4.10;;;1.60;;
77581;SDS011;66726;52.388;9.986;2023-10-31T08:20:16;2.53;;;1.40;;
77581;SDS011;66726;52.388;9.986;2023-10-31T08:22:44;1.77;;;1.40;;
77581;SDS011;66726;52.388;9.986;2023-10-31T08:25:13;1.50;;;1.30;;
77581;SDS011;66726;52.388;9.986;2023-10-31T08:27:41;1.30;;;1.20;;
77581;SDS011;66726;52.388;9.986;2023-10-31T08:30:09;1.87;;;1.40;;
77581;SDS011;66726;52.388;9.986;2023-10-31T08:32:40;1.87;;;1.43;;
77581;SDS011;66726;52.388;9.986;2023-10-31T08:35:08;2.77;;;1.70;;
77581;SDS011;66726;52.388;9.986;2023-10-31T08:37:36;3.33;;;1.50;;
77581;SDS011;66726;52.388;9.986;2023-10-31T08:40:05;1.20;;;1.10;;
77581;SDS011;66726;52.388;9.986;2023-10-31T08:42:35;1.40;;;1.30;;
77581;SDS011;66726;52.388;9.986;2023-10-31T08:45:03;3.20;;;1.60;;
77581;SDS011;66726;52.388;9.986;2023-10-31T08:47:32;1.57;;;1.20;;
77581;SDS011;66726;52.388;9.986;2023-10-31T08:50:02;1.70;;;1.20;;
77581;SDS011;66726;52.388;9.986;2023-10-31T08:52:31;2.63;;;1.30;;
77581;SDS011;66726;52.388;9.986;2023-10-31T08:54:59;1.67;;;1.13;;
77581;SDS011;66726;52.388;9.986;2023-10-31T08:57:27;1.40;;;1.30;;
77581;SDS011;66726;52.388;9.986;2023-10-31T08:59:55;1.90;;;1.50;;
77581;SDS011;66726;52.388;9.986;2023-10-31T09:02:23;2.07;;;1.70;;
77581;SDS011;66726;52.388;9.986;2023-10-31T09:04:51;2.03;;;1.30;;
77581;SDS011;66726;52.388;9.986;2023-10-31T09:07:21;1.50;;;1.40;;
77581;SDS011;66726;52.388;9.986;2023-10-31T09:09:49;1.40;;;1.30;;
77581;SDS011;66726;52.388;9.986;2023-10-31T09:12:17;2.87;;;1.40;;
77581;SDS011;66726;52.388;9.986;2023-10-31T09:14:45;1.30;;;1.20;;
77581;SDS011;66726;52.388;9.986;2023-10-31T09:17:13;2.60;;;1.50;;
77581;SDS011;66726;52.388;9.986;2023-10-31T09:19:41;1.83;;;1.20;;
77581;SDS011;66726;52.388;9.986;2023-10-31T09:22:10;1.60;;;1.20;;
77581;SDS011;66726;52.388;9.986;2023-10-31T09:24:39;1.63;;;1.30;;
77581;SDS011;66726;52.388;9.986;2023-10-31T09:27:11;2.87;;;1.33;;
77581;SDS011;66726;52.388;9.986;2023-10-31T09:29:40;2.60;;;1.47;;
77581;SDS011;66726;52.388;9.986;2023-10-31T09:32:08;1.40;;;1.20;;
77581;SDS011;66726;52.388;9.986;2023-10-31T09:34:37;1.73;;;1.10;;
77581;SDS011;66726;52.388;9.986;2023-10-31T09:37:05;1.43;;;1.20;;
77581;SDS011;66726;52.388;9.986;2023-10-31T09:39:33;3.17;;;1.40;;
77581;SDS011;66726;52.388;9.986;2023-10-31T09:42:02;1.70;;;1.30;;
77581;SDS011;66726;52.388;9.986;2023-10-31T09:44:31;2.63;;;1.13;;
77581;SDS011;66726;52.388;9.986;2023-10-31T09:47:00;1.20;;;1.10;;
77581;SDS011;66726;52.388;9.986;2023-10-31T09:49:28;1.23;;;1.13;;
77581;SDS011;66726;52.388;9.986;2023-10-31T09:51:57;2.40;;;1.17;;
77581;SDS011;66726;52.388;9.986;2023-10-31T09:54:25;1.40;;;1.30;;
77581;SDS011;66726;52.388;9.986;2023-10-31T09:56:54;1.00;;;1.00;;
77581;SDS011;66726;52.388;9.986;2023-10-31T09:59:23;2.73;;;1.20;;
77581;SDS011;66726;52.388;9.986;2023-10-31T10:01:52;1.70;;;0.90;;
77581;SDS011;66726;52.388;9.986;2023-10-31T10:04:20;2.50;;;1.37;;
77581;SDS011;66726;52.388;9.986;2023-10-31T10:06:49;3.10;;;1.60;;
77581;SDS011;66726;52.388;9.986;2023-10-31T10:09:19;3.20;;;1.73;;
77581;SDS011;66726;52.388;9.986;2023-10-31T10:11:49;2.50;;;1.27;;
77581;SDS011;66726;52.388;9.986;2023-10-31T10:14:22;2.77;;;1.57;;
77581;SDS011;66726;52.388;9.986;2023-10-31T10:16:52;2.30;;;1.10;;
77581;SDS011;66726;52.388;9.986;2023-10-31T10:19:21;6.97;;;5.67;;
77581;SDS011;66726;52.388;9.986;2023-10-31T10:21:51;4.10;;;3.30;;
77581;SDS011;66726;52.388;9.986;2023-10-31T10:24:21;3.50;;;3.20;;
77581;SDS011;66726;52.388;9.986;2023-10-31T10:26:51;3.40;;;2.60;;
77581;SDS011;66726;52.388;9.986;2023-10-31T10:29:19;11.50;;;8.57;;
77581;SDS011;66726;52.388;9.986;2023-10-31T10:31:49;12.70;;;8.57;;
77581;SDS011;66726;52.388;9.986;2023-10-31T10:34:17;39.37;;;28.50;;
77581;SDS011;66726;52.388;9.986;2023-10-31T10:36:46;24.00;;;16.43;;
77581;SDS011;66726;52.388;9.986;2023-10-31T10:39:16;9.83;;;6.60;;
77581;SDS011;66726;52.388;9.986;2023-10-31T10:41:51;11.00;;;8.07;;
77581;SDS011;66726;52.388;9.986;2023-10-31T10:44:23;7.73;;;6.00;;
77581;SDS011;66726;52.388;9.986;2023-10-31T10:47:04;31.13;;;21.03;;
77581;SDS011;66726;52.388;9.986;2023-10-31T10:49:34;7.67;;;5.87;;
77581;SDS011;66726;52.388;9.986;2023-10-31T10:52:14;7.23;;;5.53;;
77581;SDS011;66726;52.388;9.986;2023-10-31T10:54:57;5.30;;;4.27;;
77581;SDS011;66726;52.388;9.986;2023-10-31T10:57:36;5.80;;;3.97;;
77581;SDS011;66726;52.388;9.986;2023-10-31T11:00:10;4.67;;;3.50;;
77581;SDS011;66726;52.388;9.986;2023-10-31T11:02:42;2.23;;;1.97;;
77581;SDS011;66726;52.388;9.986;2023-10-31T11:05:11;2.90;;;2.60;;
77581;SDS011;66726;52.388;9.986;2023-10-31T11:07:41;1.40;;;1.30;;
77581;SDS011;66726;52.388;9.986;2023-10-31T11:10:10;3.93;;;1.40;;
77581;SDS011;66726;52.388;9.986;2023-10-31T11:12:39;1.23;;;1.10;;
77581;SDS011;66726;52.388;9.986;2023-10-31T11:15:08;1.87;;;1.77;;
77581;SDS011;66726;52.388;9.986;2023-10-31T11:17:43;1.40;;;1.10;;
77581;SDS011;66726;52.388;9.986;2023-10-31T11:20:14;3.50;;;2.53;;
77581;SDS011;66726;52.388;9.986;2023-10-31T11:22:44;4.07;;;2.50;;
77581;SDS011;66726;52.388;9.986;2023-10-31T11:25:16;3.60;;;3.23;;
77581;SDS011;66726;52.388;9.986;2023-10-31T11:27:57;2.80;;;2.30;;
77581;SDS011;66726;52.388;9.986;2023-10-31T11:30:39;1.77;;;1.53;;
77581;SDS011;66726;52.388;9.986;2023-10-31T11:33:13;4.57;;;2.60;;
77581;SDS011;66726;52.388;9.986;2023-10-31T11:35:43;2.00;;;1.30;;
77581;SDS011;66726;52.388;9.986;2023-10-31T11:38:16;2.63;;;1.63;;
77581;SDS011;66726;52.388;9.986;2023-10-31T11:40:59;3.83;;;2.10;;
77581;SDS011;66726;52.388;9.986;2023-10-31T11:43:36;3.00;;;2.60;;
77581;SDS011;66726;52.388;9.986;2023-10-31T11:46:22;4.07;;;2.03;;
77581;SDS011;66726;52.388;9.986;2023-10-31T11:48:54;2.40;;;1.63;;
77581;SDS011;66726;52.388;9.986;2023-10-31T11:51:24;3.90;;;1.60;;
77581;SDS011;66726;52.388;9.986;2023-10-31T11:53:52;2.60;;;1.40;;
77581;SDS011;66726;52.388;9.986;2023-10-31T11:56:21;6.10;;;1.30;;
77581;SDS011;66726;52.388;9.986;2023-10-31T11:59:00;2.20;;;1.50;;
77581;SDS011;66726;52.388;9.986;2023-10-31T12:01:30;2.13;;;1.47;;
77581;SDS011;66726;52.388;9.986;2023-10-31T12:04:00;3.30;;;1.90;;
77581;SDS011;66726;52.388;9.986;2023-10-31T12:06:33;3.53;;;1.43;;
77581;SDS011;66726;52.388;9.986;2023-10-31T12:09:01;1.50;;;1.27;;
77581;SDS011;66726;52.388;9.986;2023-10-31T12:11:29;4.00;;;1.80;;
77581;SDS011;66726;52.388;9.986;2023-10-31T12:13:58;2.80;;;1.23;;
77581;SDS011;66726;52.388;9.986;2023-10-31T12:16:31;2.23;;;1.50;;
77581;SDS011;66726;52.388;9.986;2023-10-31T12:19:03;2.27;;;1.50;;
77581;SDS011;66726;52.388;9.986;2023-10-31T12:21:34;3.63;;;1.47;;
77581;SDS011;66726;52.388;9.986;2023-10-31T12:24:08;1.90;;;1.60;;
77581;SDS011;66726;52.388;9.986;2023-10-31T12:26:38;2.50;;;1.90;;
77581;SDS011;66726;52.388;9.986;2023-10-31T12:29:08;5.07;;;2.17;;
77581;SDS011;66726;52.388;9.986;2023-10-31T12:31:42;6.00;;;3.13;;
77581;SDS011;66726;52.388;9.986;2023-10-31T12:34:14;3.23;;;2.40;;
77581;SDS011;66726;52.388;9.986;2023-10-31T12:36:44;1.77;;;1.60;;
77581;SDS011;66726;52.388;9.986;2023-10-31T12:39:15;3.00;;;1.77;;
77581;SDS011;66726;52.388;9.986;2023-10-31T12:41:48;2.50;;;1.40;;
77581;SDS011;66726;52.388;9.986;2023-10-31T12:44:17;2.37;;;1.40;;
77581;SDS011;66726;52.388;9.986;2023-10-31T12:46:51;3.50;;;2.70;;
77581;SDS011;66726;52.388;9.986;2023-10-31T12:49:21;3.70;;;1.73;;
77581;SDS011;66726;52.388;9.986;2023-10-31T12:51:56;3.40;;;1.87;;
77581;SDS011;66726;52.388;9.986;2023-10-31T12:54:30;3.30;;;1.60;;
77581;SDS011;66726;52.388;9.986;2023-10-31T12:56:59;3.90;;;3.00;;
77581;SDS011;66726;52.388;9.986;2023-10-31T12:59:28;5.93;;;2.60;;
77581;SDS011;66726;52.388;9.986;2023-10-31T13:01:57;2.57;;;2.17;;
77581;SDS011;66726;52.388;9.986;2023-10-31T13:04:27;4.37;;;1.93;;
77581;SDS011;66726;52.388;9.986;2023-10-31T13:06:58;2.47;;;1.80;;
77581;SDS011;66726;52.388;9.986;2023-10-31T13:09:29;3.10;;;2.10;;
77581;SDS011;66726;52.388;9.986;2023-10-31T13:12:00;2.90;;;2.30;;
77581;SDS011;66726;52.388;9.986;2023-10-31T13:14:30;2.30;;;1.80;;
77581;SDS011;66726;52.388;9.986;2023-10-31T13:16:58;4.47;;;2.70;;
77581;SDS011;66726;52.388;9.986;2023-10-31T13:19:30;2.30;;;2.10;;
77581;SDS011;66726;52.388;9.986;2023-10-31T13:22:01;2.00;;;1.63;;
77581;SDS011;66726;52.388;9.986;2023-10-31T13:24:29;3.27;;;1.93;;
77581;SDS011;66726;52.388;9.986;2023-10-31T13:26:58;2.50;;;2.10;;
77581;SDS011;66726;52.388;9.986;2023-10-31T13:29:29;3.50;;;2.60;;
77581;SDS011;66726;52.388;9.986;2023-10-31T13:31:57;5.33;;;2.20;;
77581;SDS011;66726;52.388;9.986;2023-10-31T13:34:25;5.33;;;2.70;;
77581;SDS011;66726;52.388;9.986;2023-10-31T13:36:55;3.07;;;2.30;;
77581;SDS011;66726;52.388;9.986;2023-10-31T13:39:23;2.30;;;2.10;;
77581;SDS011;66726;52.388;9.986;2023-10-31T13:41:51;5.40;;;2.43;;
77581;SDS011;66726;52.388;9.986;2023-10-31T13:44:19;3.83;;;3.10;;
77581;SDS011;66726;52.388;9.986;2023-10-31T13:46:48;5.03;;;2.70;;
77581;SDS011;66726;52.388;9.986;2023-10-31T13:49:16;4.10;;;2.77;;
77581;SDS011;66726;52.388;9.986;2023-10-31T13:51:45;4.30;;;2.90;;
77581;SDS011;66726;52.388;9.986;2023-10-31T13:54:16;3.73;;;3.00;;
77581;SDS011;66726;52.388;9.986;2023-10-31T13:56:45;4.27;;;3.10;;
77581;SDS011;66726;52.388;9.986;2023-10-31T13:59:14;4.17;;;2.70;;
77581;SDS011;66726;52.388;9.986;2023-10-31T14:01:46;3.20;;;2.87;;
77581;SDS011;66726;52.388;9.986;2023-10-31T14:04:14;6.00;;;3.27;;
77581;SDS011;66726;52.388;9.986;2023-10-31T14:06:43;3.30;;;2.50;;
77581;SDS011;66726;52.388;9.986;2023-10-31T14:09:11;4.13;;;3.13;;
77581;SDS011;66726;52.388;9.986;2023-10-31T14:11:42;4.83;;;2.67;;
77581;SDS011;66726;52.388;9.986;2023-10-31T14:14:10;4.17;;;2.87;;
77581;SDS011;66726;52.388;9.986;2023-10-31T14:16:40;5.30;;;3.10;;
77581;SDS011;66726;52.388;9.986;2023-10-31T14:19:10;7.07;;;3.33;;
77581;SDS011;66726;52.388;9.986;2023-10-31T14:21:39;3.77;;;2.70;;
77581;SDS011;66726;52.388;9.986;2023-10-31T14:24:08;4.20;;;3.47;;
77581;SDS011;66726;52.388;9.986;2023-10-31T14:26:39;6.63;;;4.40;;
77581;SDS011;66726;52.388;9.986;2023-10-31T14:29:11;8.80;;;6.20;;
77581;SDS011;66726;52.388;9.986;2023-10-31T14:31:39;14.33;;;7.40;;
77581;SDS011;66726;52.388;9.986;2023-10-31T14:34:09;7.17;;;4.70;;
77581;SDS011;66726;52.388;9.986;2023-10-31T14:36:37;18.40;;;11.83;;
77581;SDS011;66726;52.388;9.986;2023-10-31T14:39:06;6.93;;;4.93;;
77581;SDS011;66726;52.388;9.986;2023-10-31T14:41:35;10.20;;;7.60;;
77581;SDS011;66726;52.388;9.986;2023-10-31T14:44:04;7.90;;;4.63;;
77581;SDS011;66726;52.388;9.986;2023-10-31T14:46:35;12.83;;;8.93;;
77581;SDS011;66726;52.388;9.986;2023-10-31T14:49:04;11.93;;;8.23;;
77581;SDS011;66726;52.388;9.986;2023-10-31T14:51:32;11.13;;;6.87;;
77581;SDS011;66726;52.388;9.986;2023-10-31T14:54:01;16.17;;;10.40;;
77581;SDS011;66726;52.388;9.986;2023-10-31T14:56:30;18.63;;;12.60;;
77581;SDS011;66726;52.388;9.986;2023-10-31T14:59:00;17.63;;;11.70;;
77581;SDS011;66726;52.388;9.986;2023-10-31T15:01:29;8.50;;;6.43;;